sensor_id;sensor_type;location;lat;lon;timestamp;temperature;humidity
18733;DHT22;9495;51.210;2.934;2023-06-14T00:00:06;20.70;99.90
18733;DHT22;9495;51.210;2.934;2023-06-14T00:02:36;20.70;99.90
18733;DHT22;9495;51.210;2.934;2023-06-14T00:05:05;20.60;99.90
18733;DHT22;9495;51.210;2.934;2023-06-14T00:07:36;20.50;99.90
18733;DHT22;9495;51.210;2.934;2023-06-14T00:10:06;20.60;99.90
18733;DHT22;9495;51.210;2.934;2023-06-14T00:12:35;20.50;99.90
18733;DHT22;9495;51.210;2.934;2023-06-14T00:15:04;20.50;99.90
18733;DHT22;9495;51.210;2.934;2023-06-14T00:17:33;20.50;99.90
18733;DHT22;9495;51.210;2.934;2023-06-14T00:20:04;20.50;99.90
18733;DHT22;9495;51.210;2.934;2023-06-14T00:22:36;20.60;99.90
18733;DHT22;9495;51.210;2.934;2023-06-14T00:25:06;20.50;99.90
18733;DHT22;9495;51.210;2.934;2023-06-14T00:27:55;20.50;99.90
18733;DHT22;9495;51.210;2.934;2023-06-14T00:30:24;20.60;99.90
18733;DHT22;9495;51.210;2.934;2023-06-14T00:32:57;20.60;99.90
18733;DHT22;9495;51.210;2.934;2023-06-14T00:35:26;20.50;99.90
18733;DHT22;9495;51.210;2.934;2023-06-14T00:37:57;20.50;99.90
18733;DHT22;9495;51.210;2.934;2023-06-14T00:40:27;20.50;99.90
18733;DHT22;9495;51.210;2.934;2023-06-14T00:42:55;20.50;99.90
18733;DHT22;9495;51.210;2.934;2023-06-14T00:45:23;20.40;99.90
18733;DHT22;9495;51.210;2.934;2023-06-14T00:47:52;20.40;99.90
18733;DHT22;9495;51.210;2.934;2023-06-14T00:50:23;20.30;99.90
18733;DHT22;9495;51.210;2.934;2023-06-14T00:52:51;20.30;99.90
18733;DHT22;9495;51.210;2.934;2023-06-14T00:55:21;20.30;99.90
18733;DHT22;9495;51.210;2.934;2023-06-14T00:57:50;20.30;99.90
18733;DHT22;9495;51.210;2.934;2023-06-14T01:00:18;20.30;99.90
18733;DHT22;9495;51.210;2.934;2023-06-14T01:02:47;20.30;99.90
18733;DHT22;9495;51.210;2.934;2023-06-14T01:05:17;20.30;99.90
18733;DHT22;9495;51.210;2.934;2023-06-14T01:07:59;20.20;99.90
18733;DHT22;9495;51.210;2.934;2023-06-14T01:10:37;20.20;99.90
18733;DHT22;9495;51.210;2.934;2023-06-14T01:13:14;20.10;99.90
18733;DHT22;9495;51.210;2.934;2023-06-14T01:15:44;20.10;99.90
18733;DHT22;9495;51.210;2.934;2023-06-14T01:18:13;20.00;99.90
18733;DHT22;9495;51.210;2.934;2023-06-14T01:20:45;20.00;99.90
18733;DHT22;9495;51.210;2.934;2023-06-14T01:23:18;19.90;99.90
18733;DHT22;9495;51.210;2.934;2023-06-14T01:25:48;19.90;99.90
18733;DHT22;9495;51.210;2.934;2023-06-14T01:28:21;19.80;99.90
18733;DHT22;9495;51.210;2.934;2023-06-14T01:30:51;19.80;99.90
18733;DHT22;9495;51.210;2.934;2023-06-14T01:33:21;19.70;99.90
18733;DHT22;9495;51.210;2.934;2023-06-14T01:35:52;19.70;99.90
18733;DHT22;9495;51.210;2.934;2023-06-14T01:38:24;19.60;99.90
18733;DHT22;9495;51.210;2.934;2023-06-14T01:40:55;19.60;99.90
18733;DHT22;9495;51.210;2.934;2023-06-14T01:43:25;19.60;99.90
18733;DHT22;9495;51.210;2.934;2023-06-14T01:45:54;19.50;99.90
18733;DHT22;9495;51.210;2.934;2023-06-14T01:48:24;19.50;99.90
18733;DHT22;9495;51.210;2.934;2023-06-14T01:50:52;19.50;99.90
18733;DHT22;9495;51.210;2.934;2023-06-14T01:53:22;19.50;99.90
18733;DHT22;9495;51.210;2.934;2023-06-14T01:55:51;19.40;99.90
18733;DHT22;9495;51.210;2.934;2023-06-14T01:58:21;19.40;99.90
18733;DHT22;9495;51.210;2.934;2023-06-14T02:00:51;19.30;99.90
18733;DHT22;9495;51.210;2.934;2023-06-14T02:03:22;19.30;99.90
18733;DHT22;9495;51.210;2.934;2023-06-14T02:05:52;19.30;99.90
18733;DHT22;9495;51.210;2.934;2023-06-14T02:08:22;19.30;99.90
18733;DHT22;9495;51.210;2.934;2023-06-14T02:10:51;19.30;99.90
18733;DHT22;9495;51.210;2.934;2023-06-14T02:13:20;19.40;99.90
18733;DHT22;9495;51.210;2.934;2023-06-14T02:15:48;19.30;99.90
18733;DHT22;9495;51.210;2.934;2023-06-14T02:18:20;19.30;99.90
18733;DHT22;9495;51.210;2.934;2023-06-14T02:20:49;19.30;99.90
18733;DHT22;9495;51.210;2.934;2023-06-14T02:23:17;19.20;99.90
18733;DHT22;9495;51.210;2.934;2023-06-14T02:25:48;19.20;99.90
18733;DHT22;9495;51.210;2.934;2023-06-14T02:28:16;19.20;99.90
18733;DHT22;9495;51.210;2.934;2023-06-14T02:30:45;19.20;99.90
18733;DHT22;9495;51.210;2.934;2023-06-14T02:33:13;19.20;99.90
18733;DHT22;9495;51.210;2.934;2023-06-14T02:35:42;19.10;99.90
18733;DHT22;9495;51.210;2.934;2023-06-14T02:38:11;19.10;99.90
18733;DHT22;9495;51.210;2.934;2023-06-14T02:40:40;19.10;99.90
18733;DHT22;9495;51.210;2.934;2023-06-14T02:43:10;19.10;99.90
18733;DHT22;9495;51.210;2.934;2023-06-14T02:45:39;19.10;99.90
18733;DHT22;9495;51.210;2.934;2023-06-14T02:48:08;19.00;99.90
18733;DHT22;9495;51.210;2.934;2023-06-14T02:50:37;19.10;99.90
18733;DHT22;9495;51.210;2.934;2023-06-14T02:53:05;19.10;99.90
18733;DHT22;9495;51.210;2.934;2023-06-14T02:55:34;19.00;99.90
18733;DHT22;9495;51.210;2.934;2023-06-14T02:58:06;19.00;99.90
18733;DHT22;9495;51.210;2.934;2023-06-14T03:00:35;19.00;99.90
18733;DHT22;9495;51.210;2.934;2023-06-14T03:03:06;19.00;99.90
18733;DHT22;9495;51.210;2.934;2023-06-14T03:05:41;19.00;99.90
18733;DHT22;9495;51.210;2.934;2023-06-14T03:08:13;18.90;99.90
18733;DHT22;9495;51.210;2.934;2023-06-14T03:10:44;18.90;99.90
18733;DHT22;9495;51.210;2.934;2023-06-14T03:13:12;18.80;99.90
18733;DHT22;9495;51.210;2.934;2023-06-14T03:15:42;18.80;99.90
18733;DHT22;9495;51.210;2.934;2023-06-14T03:18:12;18.80;99.90
18733;DHT22;9495;51.210;2.934;2023-06-14T03:20:42;18.80;99.90
18733;DHT22;9495;51.210;2.934;2023-06-14T03:23:12;18.80;99.90
18733;DHT22;9495;51.210;2.934;2023-06-14T03:25:41;18.70;99.90
18733;DHT22;9495;51.210;2.934;2023-06-14T03:28:09;18.70;99.90
18733;DHT22;9495;51.210;2.934;2023-06-14T03:30:38;18.70;99.90
18733;DHT22;9495;51.210;2.934;2023-06-14T03:33:08;18.60;99.90
18733;DHT22;9495;51.210;2.934;2023-06-14T03:35:37;18.60;99.90
18733;DHT22;9495;51.210;2.934;2023-06-14T03:38:05;18.60;99.90
18733;DHT22;9495;51.210;2.934;2023-06-14T03:40:33;18.60;99.90
18733;DHT22;9495;51.210;2.934;2023-06-14T03:43:02;18.60;99.90
18733;DHT22;9495;51.210;2.934;2023-06-14T03:45:31;18.60;99.90
18733;DHT22;9495;51.210;2.934;2023-06-14T03:47:59;18.60;99.90
18733;DHT22;9495;51.210;2.934;2023-06-14T03:50:29;18.60;99.90
18733;DHT22;9495;51.210;2.934;2023-06-14T03:52:59;18.60;99.90
18733;DHT22;9495;51.210;2.934;2023-06-14T03:55:28;18.60;99.90
18733;DHT22;9495;51.210;2.934;2023-06-14T03:58:01;18.60;99.90
18733;DHT22;9495;51.210;2.934;2023-06-14T04:00:29;18.70;99.90
18733;DHT22;9495;51.210;2.934;2023-06-14T04:02:59;18.60;99.90
18733;DHT22;9495;51.210;2.934;2023-06-14T04:05:30;18.60;99.90
18733;DHT22;9495;51.210;2.934;2023-06-14T04:07:58;18.60;99.90
18733;DHT22;9495;51.210;2.934;2023-06-14T04:10:28;18.60;99.90
18733;DHT22;9495;51.210;2.934;2023-06-14T04:12:56;18.60;99.90
18733;DHT22;9495;51.210;2.934;2023-06-14T04:15:25;18.60;99.90
18733;DHT22;9495;51.210;2.934;2023-06-14T04:17:55;18.60;99.90
18733;DHT22;9495;51.210;2.934;2023-06-14T04:20:24;18.60;99.90
18733;DHT22;9495;51.210;2.934;2023-06-14T04:22:56;18.60;99.90
18733;DHT22;9495;51.210;2.934;2023-06-14T04:25:25;18.70;99.90
18733;DHT22;9495;51.210;2.934;2023-06-14T04:27:56;18.70;99.90
18733;DHT22;9495;51.210;2.934;2023-06-14T04:30:24;18.70;99.90
18733;DHT22;9495;51.210;2.934;2023-06-14T04:32:55;18.70;99.90
18733;DHT22;9495;51.210;2.934;2023-06-14T04:35:24;18.70;99.90
18733;DHT22;9495;51.210;2.934;2023-06-14T04:37:55;18.70;99.90
18733;DHT22;9495;51.210;2.934;2023-06-14T04:40:24;18.80;99.90
18733;DHT22;9495;51.210;2.934;2023-06-14T04:42:53;18.80;99.90
18733;DHT22;9495;51.210;2.934;2023-06-14T04:45:21;18.80;99.90
18733;DHT22;9495;51.210;2.934;2023-06-14T04:47:50;18.80;99.90
18733;DHT22;9495;51.210;2.934;2023-06-14T04:50:24;18.90;99.90
18733;DHT22;9495;51.210;2.934;2023-06-14T04:52:54;18.90;99.90
18733;DHT22;9495;51.210;2.934;2023-06-14T04:55:24;18.90;99.90
18733;DHT22;9495;51.210;2.934;2023-06-14T04:57:53;18.90;99.90
18733;DHT22;9495;51.210;2.934;2023-06-14T05:00:22;18.90;99.90
18733;DHT22;9495;51.210;2.934;2023-06-14T05:02:51;19.00;99.90
18733;DHT22;9495;51.210;2.934;2023-06-14T05:05:20;19.00;99.90
18733;DHT22;9495;51.210;2.934;2023-06-14T05:07:49;19.00;99.90
18733;DHT22;9495;51.210;2.934;2023-06-14T05:10:19;19.10;99.90
18733;DHT22;9495;51.210;2.934;2023-06-14T05:12:48;19.10;99.90
18733;DHT22;9495;51.210;2.934;2023-06-14T05:15:17;19.20;99.90
18733;DHT22;9495;51.210;2.934;2023-06-14T05:17:46;19.20;99.90
18733;DHT22;9495;51.210;2.934;2023-06-14T05:20:20;19.20;99.90
18733;DHT22;9495;51.210;2.934;2023-06-14T05:22:50;19.30;99.90
18733;DHT22;9495;51.210;2.934;2023-06-14T05:25:21;19.40;99.90
18733;DHT22;9495;51.210;2.934;2023-06-14T05:27:49;19.40;99.90
18733;DHT22;9495;51.210;2.934;2023-06-14T05:30:17;19.50;99.90
18733;DHT22;9495;51.210;2.934;2023-06-14T05:32:46;19.50;99.90
18733;DHT22;9495;51.210;2.934;2023-06-14T05:35:15;19.60;99.90
18733;DHT22;9495;51.210;2.934;2023-06-14T05:37:44;19.60;99.90
18733;DHT22;9495;51.210;2.934;2023-06-14T05:40:13;19.70;99.90
18733;DHT22;9495;51.210;2.934;2023-06-14T05:42:42;19.80;99.90
18733;DHT22;9495;51.210;2.934;2023-06-14T05:45:11;19.80;99.90
18733;DHT22;9495;51.210;2.934;2023-06-14T05:47:40;19.80;99.90
18733;DHT22;9495;51.210;2.934;2023-06-14T05:50:09;19.90;99.90
18733;DHT22;9495;51.210;2.934;2023-06-14T05:52:38;20.00;99.90
18733;DHT22;9495;51.210;2.934;2023-06-14T05:55:07;20.10;99.90
18733;DHT22;9495;51.210;2.934;2023-06-14T05:57:35;20.10;99.90
18733;DHT22;9495;51.210;2.934;2023-06-14T06:00:07;20.20;99.90
18733;DHT22;9495;51.210;2.934;2023-06-14T06:02:41;20.60;99.90
18733;DHT22;9495;51.210;2.934;2023-06-14T06:05:11;20.90;99.90
18733;DHT22;9495;51.210;2.934;2023-06-14T06:07:40;21.80;99.90
18733;DHT22;9495;51.210;2.934;2023-06-14T06:10:09;22.20;99.90
18733;DHT22;9495;51.210;2.934;2023-06-14T06:12:37;22.40;99.90
18733;DHT22;9495;51.210;2.934;2023-06-14T06:15:08;22.50;99.90
18733;DHT22;9495;51.210;2.934;2023-06-14T06:17:39;22.70;99.90
18733;DHT22;9495;51.210;2.934;2023-06-14T06:20:22;22.80;99.90
18733;DHT22;9495;51.210;2.934;2023-06-14T06:22:55;22.80;99.90
18733;DHT22;9495;51.210;2.934;2023-06-14T06:25:24;22.80;99.90
18733;DHT22;9495;51.210;2.934;2023-06-14T06:27:53;22.70;99.90
18733;DHT22;9495;51.210;2.934;2023-06-14T06:30:24;22.90;99.90
18733;DHT22;9495;51.210;2.934;2023-06-14T06:32:53;23.00;99.90
18733;DHT22;9495;51.210;2.934;2023-06-14T06:35:23;23.20;99.90
18733;DHT22;9495;51.210;2.934;2023-06-14T06:37:52;23.30;99.90
18733;DHT22;9495;51.210;2.934;2023-06-14T06:40:20;23.20;99.90
18733;DHT22;9495;51.210;2.934;2023-06-14T06:42:49;23.30;99.90
18733;DHT22;9495;51.210;2.934;2023-06-14T06:45:18;23.30;99.90
18733;DHT22;9495;51.210;2.934;2023-06-14T06:47:49;23.40;99.90
18733;DHT22;9495;51.210;2.934;2023-06-14T06:50:19;23.40;99.90
18733;DHT22;9495;51.210;2.934;2023-06-14T06:52:50;23.50;99.90
18733;DHT22;9495;51.210;2.934;2023-06-14T06:55:18;23.60;99.90
18733;DHT22;9495;51.210;2.934;2023-06-14T06:57:47;23.70;99.90
18733;DHT22;9495;51.210;2.934;2023-06-14T07:00:17;23.70;99.90
18733;DHT22;9495;51.210;2.934;2023-06-14T07:02:46;23.70;99.90
18733;DHT22;9495;51.210;2.934;2023-06-14T07:05:16;23.80;99.90
18733;DHT22;9495;51.210;2.934;2023-06-14T07:07:45;23.80;99.90
18733;DHT22;9495;51.210;2.934;2023-06-14T07:10:14;23.80;99.90
18733;DHT22;9495;51.210;2.934;2023-06-14T07:12:42;23.80;99.90
18733;DHT22;9495;51.210;2.934;2023-06-14T07:15:11;23.70;99.90
18733;DHT22;9495;51.210;2.934;2023-06-14T07:17:40;23.80;99.90
18733;DHT22;9495;51.210;2.934;2023-06-14T07:20:10;23.80;99.90
18733;DHT22;9495;51.210;2.934;2023-06-14T07:22:42;23.80;99.90
18733;DHT22;9495;51.210;2.934;2023-06-14T07:25:12;23.90;99.90
18733;DHT22;9495;51.210;2.934;2023-06-14T07:27:43;23.90;99.90
18733;DHT22;9495;51.210;2.934;2023-06-14T07:30:12;24.00;99.90
18733;DHT22;9495;51.210;2.934;2023-06-14T07:32:41;24.00;99.90
18733;DHT22;9495;51.210;2.934;2023-06-14T07:35:09;24.00;99.90
18733;DHT22;9495;51.210;2.934;2023-06-14T07:37:38;24.00;99.90
18733;DHT22;9495;51.210;2.934;2023-06-14T07:40:09;24.10;99.90
18733;DHT22;9495;51.210;2.934;2023-06-14T07:42:37;24.20;99.90
18733;DHT22;9495;51.210;2.934;2023-06-14T07:45:06;24.10;99.90
18733;DHT22;9495;51.210;2.934;2023-06-14T07:47:35;24.20;99.90
18733;DHT22;9495;51.210;2.934;2023-06-14T07:50:04;24.30;99.90
18733;DHT22;9495;51.210;2.934;2023-06-14T07:52:33;24.30;99.90
18733;DHT22;9495;51.210;2.934;2023-06-14T07:55:01;24.40;99.90
18733;DHT22;9495;51.210;2.934;2023-06-14T07:57:32;24.30;99.90
18733;DHT22;9495;51.210;2.934;2023-06-14T08:00:00;24.40;99.90
18733;DHT22;9495;51.210;2.934;2023-06-14T08:02:33;24.30;99.90
18733;DHT22;9495;51.210;2.934;2023-06-14T08:05:02;24.40;99.90
18733;DHT22;9495;51.210;2.934;2023-06-14T08:07:30;24.50;99.90
18733;DHT22;9495;51.210;2.934;2023-06-14T08:09:59;24.40;99.90
18733;DHT22;9495;51.210;2.934;2023-06-14T08:12:27;24.20;99.90
18733;DHT22;9495;51.210;2.934;2023-06-14T08:14:57;24.40;99.90
18733;DHT22;9495;51.210;2.934;2023-06-14T08:17:40;24.20;99.90
18733;DHT22;9495;51.210;2.934;2023-06-14T08:20:09;24.20;99.90
18733;DHT22;9495;51.210;2.934;2023-06-14T08:22:38;24.30;99.90
18733;DHT22;9495;51.210;2.934;2023-06-14T08:25:09;24.40;99.90
18733;DHT22;9495;51.210;2.934;2023-06-14T08:27:39;24.10;99.90
18733;DHT22;9495;51.210;2.934;2023-06-14T08:30:11;24.20;99.90
18733;DHT22;9495;51.210;2.934;2023-06-14T08:32:39;24.30;99.90
18733;DHT22;9495;51.210;2.934;2023-06-14T08:35:08;24.40;99.90
18733;DHT22;9495;51.210;2.934;2023-06-14T08:37:38;24.40;99.90
18733;DHT22;9495;51.210;2.934;2023-06-14T08:40:17;24.30;99.90
18733;DHT22;9495;51.210;2.934;2023-06-14T08:42:48;24.20;99.90
18733;DHT22;9495;51.210;2.934;2023-06-14T08:45:19;24.00;99.90
18733;DHT22;9495;51.210;2.934;2023-06-14T08:47:52;24.00;99.90
18733;DHT22;9495;51.210;2.934;2023-06-14T08:50:26;24.30;99.90
18733;DHT22;9495;51.210;2.934;2023-06-14T08:53:01;24.40;99.90
18733;DHT22;9495;51.210;2.934;2023-06-14T08:55:31;24.10;99.90
18733;DHT22;9495;51.210;2.934;2023-06-14T08:58:04;24.30;99.90
18733;DHT22;9495;51.210;2.934;2023-06-14T09:00:34;24.40;99.90
18733;DHT22;9495;51.210;2.934;2023-06-14T09:03:05;24.40;99.90
18733;DHT22;9495;51.210;2.934;2023-06-14T09:05:41;24.60;99.90
18733;DHT22;9495;51.210;2.934;2023-06-14T09:08:09;24.60;99.90
18733;DHT22;9495;51.210;2.934;2023-06-14T09:10:39;24.40;99.90
18733;DHT22;9495;51.210;2.934;2023-06-14T09:13:08;24.30;99.90
18733;DHT22;9495;51.210;2.934;2023-06-14T09:15:38;24.20;99.90
18733;DHT22;9495;51.210;2.934;2023-06-14T09:18:07;24.20;99.90
18733;DHT22;9495;51.210;2.934;2023-06-14T09:20:35;24.20;99.90
18733;DHT22;9495;51.210;2.934;2023-06-14T09:23:04;24.30;99.90
18733;DHT22;9495;51.210;2.934;2023-06-14T09:25:41;24.50;99.90
18733;DHT22;9495;51.210;2.934;2023-06-14T09:28:11;24.40;99.90
18733;DHT22;9495;51.210;2.934;2023-06-14T09:30:41;24.50;99.90
18733;DHT22;9495;51.210;2.934;2023-06-14T09:33:10;24.30;99.90
18733;DHT22;9495;51.210;2.934;2023-06-14T09:35:39;24.60;99.90
18733;DHT22;9495;51.210;2.934;2023-06-14T09:38:08;24.70;99.90
18733;DHT22;9495;51.210;2.934;2023-06-14T09:40:37;24.80;99.90
18733;DHT22;9495;51.210;2.934;2023-06-14T09:43:06;24.80;99.90
18733;DHT22;9495;51.210;2.934;2023-06-14T09:45:38;25.00;99.90
18733;DHT22;9495;51.210;2.934;2023-06-14T09:48:09;25.00;99.90
18733;DHT22;9495;51.210;2.934;2023-06-14T09:50:39;24.80;99.90
18733;DHT22;9495;51.210;2.934;2023-06-14T09:53:10;25.00;99.90
18733;DHT22;9495;51.210;2.934;2023-06-14T09:55:41;25.00;99.90
18733;DHT22;9495;51.210;2.934;2023-06-14T09:58:10;25.10;99.90
18733;DHT22;9495;51.210;2.934;2023-06-14T10:00:40;24.80;99.90
18733;DHT22;9495;51.210;2.934;2023-06-14T10:03:14;24.90;99.90
18733;DHT22;9495;51.210;2.934;2023-06-14T10:05:45;25.10;99.90
18733;DHT22;9495;51.210;2.934;2023-06-14T10:08:17;25.10;99.90
18733;DHT22;9495;51.210;2.934;2023-06-14T10:10:46;25.00;99.90
18733;DHT22;9495;51.210;2.934;2023-06-14T10:13:15;25.10;99.90
18733;DHT22;9495;51.210;2.934;2023-06-14T10:15:51;25.10;99.90
18733;DHT22;9495;51.210;2.934;2023-06-14T10:18:28;25.30;99.90
18733;DHT22;9495;51.210;2.934;2023-06-14T10:21:04;25.30;99.90
18733;DHT22;9495;51.210;2.934;2023-06-14T10:23:38;25.20;99.90
18733;DHT22;9495;51.210;2.934;2023-06-14T10:26:09;24.90;99.90
18733;DHT22;9495;51.210;2.934;2023-06-14T10:28:55;25.00;99.90
18733;DHT22;9495;51.210;2.934;2023-06-14T10:31:40;25.20;99.90
18733;DHT22;9495;51.210;2.934;2023-06-14T10:34:10;25.30;99.90
18733;DHT22;9495;51.210;2.934;2023-06-14T10:36:42;25.40;99.90
18733;DHT22;9495;51.210;2.934;2023-06-14T10:39:14;25.10;99.90
18733;DHT22;9495;51.210;2.934;2023-06-14T10:41:51;24.90;99.90
18733;DHT22;9495;51.210;2.934;2023-06-14T10:44:40;24.90;99.90
18733;DHT22;9495;51.210;2.934;2023-06-14T10:47:21;25.00;99.90
18733;DHT22;9495;51.210;2.934;2023-06-14T10:49:53;25.00;99.90
18733;DHT22;9495;51.210;2.934;2023-06-14T10:52:25;25.20;99.90
18733;DHT22;9495;51.210;2.934;2023-06-14T10:55:09;25.20;99.90
18733;DHT22;9495;51.210;2.934;2023-06-14T10:57:40;25.10;99.90
18733;DHT22;9495;51.210;2.934;2023-06-14T11:00:13;25.00;99.90
18733;DHT22;9495;51.210;2.934;2023-06-14T11:03:18;25.20;99.90
18733;DHT22;9495;51.210;2.934;2023-06-14T11:05:54;25.20;99.90
18733;DHT22;9495;51.210;2.934;2023-06-14T11:08:40;25.30;99.90
18733;DHT22;9495;51.210;2.934;2023-06-14T11:11:14;25.40;99.90
18733;DHT22;9495;51.210;2.934;2023-06-14T11:13:45;25.40;99.90
18733;DHT22;9495;51.210;2.934;2023-06-14T11:16:15;25.70;99.90
18733;DHT22;9495;51.210;2.934;2023-06-14T11:18:44;25.70;99.90
18733;DHT22;9495;51.210;2.934;2023-06-14T11:21:17;25.50;99.90
18733;DHT22;9495;51.210;2.934;2023-06-14T11:23:54;25.60;99.90
18733;DHT22;9495;51.210;2.934;2023-06-14T11:26:27;25.50;99.90
18733;DHT22;9495;51.210;2.934;2023-06-14T11:28:56;25.20;99.90
18733;DHT22;9495;51.210;2.934;2023-06-14T11:31:26;24.90;99.90
18733;DHT22;9495;51.210;2.934;2023-06-14T11:33:55;25.20;99.90
18733;DHT22;9495;51.210;2.934;2023-06-14T11:36:28;25.20;99.90
18733;DHT22;9495;51.210;2.934;2023-06-14T11:38:58;25.40;99.90
18733;DHT22;9495;51.210;2.934;2023-06-14T11:41:33;25.40;99.90
18733;DHT22;9495;51.210;2.934;2023-06-14T11:44:02;25.20;99.90
18733;DHT22;9495;51.210;2.934;2023-06-14T11:46:31;25.50;99.90
18733;DHT22;9495;51.210;2.934;2023-06-14T11:48:59;25.50;99.90
18733;DHT22;9495;51.210;2.934;2023-06-14T11:51:32;25.30;99.90
18733;DHT22;9495;51.210;2.934;2023-06-14T11:54:01;25.00;99.90
18733;DHT22;9495;51.210;2.934;2023-06-14T11:56:31;25.30;99.90
18733;DHT22;9495;51.210;2.934;2023-06-14T11:59:00;25.40;99.90
18733;DHT22;9495;51.210;2.934;2023-06-14T12:01:30;25.70;99.90
18733;DHT22;9495;51.210;2.934;2023-06-14T12:03:59;25.80;99.90
18733;DHT22;9495;51.210;2.934;2023-06-14T12:06:29;25.70;99.90
18733;DHT22;9495;51.210;2.934;2023-06-14T12:09:03;25.90;99.90
18733;DHT22;9495;51.210;2.934;2023-06-14T12:11:34;25.50;99.90
18733;DHT22;9495;51.210;2.934;2023-06-14T12:14:03;25.70;99.90
18733;DHT22;9495;51.210;2.934;2023-06-14T12:16:33;25.80;99.90
18733;DHT22;9495;51.210;2.934;2023-06-14T12:19:09;25.80;99.90
18733;DHT22;9495;51.210;2.934;2023-06-14T12:21:38;26.00;99.90
18733;DHT22;9495;51.210;2.934;2023-06-14T12:24:09;25.70;99.90
18733;DHT22;9495;51.210;2.934;2023-06-14T12:26:41;25.90;99.90
18733;DHT22;9495;51.210;2.934;2023-06-14T12:29:09;25.70;99.90
18733;DHT22;9495;51.210;2.934;2023-06-14T12:31:40;25.60;99.90
18733;DHT22;9495;51.210;2.934;2023-06-14T12:34:10;25.90;99.90
18733;DHT22;9495;51.210;2.934;2023-06-14T12:36:38;25.80;99.90
18733;DHT22;9495;51.210;2.934;2023-06-14T12:39:13;25.40;99.90
18733;DHT22;9495;51.210;2.934;2023-06-14T12:41:41;25.20;99.90
18733;DHT22;9495;51.210;2.934;2023-06-14T12:44:10;25.50;99.90
18733;DHT22;9495;51.210;2.934;2023-06-14T12:46:39;25.50;99.90
18733;DHT22;9495;51.210;2.934;2023-06-14T12:49:09;25.40;99.90
18733;DHT22;9495;51.210;2.934;2023-06-14T12:51:38;25.70;99.90
18733;DHT22;9495;51.210;2.934;2023-06-14T12:54:08;25.70;99.90
18733;DHT22;9495;51.210;2.934;2023-06-14T12:56:37;25.80;99.90
18733;DHT22;9495;51.210;2.934;2023-06-14T12:59:06;25.80;99.90
18733;DHT22;9495;51.210;2.934;2023-06-14T13:01:35;25.90;99.90
18733;DHT22;9495;51.210;2.934;2023-06-14T13:04:03;25.90;99.90
18733;DHT22;9495;51.210;2.934;2023-06-14T13:06:32;25.90;99.90
18733;DHT22;9495;51.210;2.934;2023-06-14T13:09:01;26.10;99.90
18733;DHT22;9495;51.210;2.934;2023-06-14T13:11:30;26.10;99.90
18733;DHT22;9495;51.210;2.934;2023-06-14T13:14:00;26.10;99.90
18733;DHT22;9495;51.210;2.934;2023-06-14T13:16:43;26.10;99.90
18733;DHT22;9495;51.210;2.934;2023-06-14T13:19:12;26.10;99.90
18733;DHT22;9495;51.210;2.934;2023-06-14T13:21:40;26.20;99.90
18733;DHT22;9495;51.210;2.934;2023-06-14T13:24:09;26.10;99.90
18733;DHT22;9495;51.210;2.934;2023-06-14T13:26:38;26.20;99.90
18733;DHT22;9495;51.210;2.934;2023-06-14T13:29:07;26.20;99.90
18733;DHT22;9495;51.210;2.934;2023-06-14T13:31:35;26.00;99.90
18733;DHT22;9495;51.210;2.934;2023-06-14T13:34:04;25.90;99.90
18733;DHT22;9495;51.210;2.934;2023-06-14T13:36:33;26.10;99.90
18733;DHT22;9495;51.210;2.934;2023-06-14T13:39:02;26.30;99.90
18733;DHT22;9495;51.210;2.934;2023-06-14T13:41:32;26.20;99.90
18733;DHT22;9495;51.210;2.934;2023-06-14T13:44:02;26.20;99.90
18733;DHT22;9495;51.210;2.934;2023-06-14T13:46:33;26.20;99.90
18733;DHT22;9495;51.210;2.934;2023-06-14T13:49:02;26.20;99.90
18733;DHT22;9495;51.210;2.934;2023-06-14T13:51:32;26.00;99.90
18733;DHT22;9495;51.210;2.934;2023-06-14T13:54:02;25.80;99.90
18733;DHT22;9495;51.210;2.934;2023-06-14T13:56:31;25.60;99.90
18733;DHT22;9495;51.210;2.934;2023-06-14T13:58:59;25.40;99.90
18733;DHT22;9495;51.210;2.934;2023-06-14T14:01:28;25.60;99.90
18733;DHT22;9495;51.210;2.934;2023-06-14T14:03:58;25.50;99.90
18733;DHT22;9495;51.210;2.934;2023-06-14T14:06:27;25.30;99.90
18733;DHT22;9495;51.210;2.934;2023-06-14T14:08:56;25.40;99.90
18733;DHT22;9495;51.210;2.934;2023-06-14T14:11:24;25.40;99.90
18733;DHT22;9495;51.210;2.934;2023-06-14T14:13:53;25.60;99.90
18733;DHT22;9495;51.210;2.934;2023-06-14T14:16:22;25.60;99.90
18733;DHT22;9495;51.210;2.934;2023-06-14T14:18:50;25.80;99.90
18733;DHT22;9495;51.210;2.934;2023-06-14T14:21:20;26.00;99.90
18733;DHT22;9495;51.210;2.934;2023-06-14T14:23:48;26.00;99.90
18733;DHT22;9495;51.210;2.934;2023-06-14T14:26:18;25.60;99.90
18733;DHT22;9495;51.210;2.934;2023-06-14T14:28:47;25.90;99.90
18733;DHT22;9495;51.210;2.934;2023-06-14T14:31:16;26.00;99.90
18733;DHT22;9495;51.210;2.934;2023-06-14T14:33:44;25.80;99.90
18733;DHT22;9495;51.210;2.934;2023-06-14T14:36:13;25.90;99.90
18733;DHT22;9495;51.210;2.934;2023-06-14T14:38:43;25.80;99.90
18733;DHT22;9495;51.210;2.934;2023-06-14T14:41:12;25.80;99.90
18733;DHT22;9495;51.210;2.934;2023-06-14T14:43:40;25.40;99.90
18733;DHT22;9495;51.210;2.934;2023-06-14T14:46:09;25.40;99.90
18733;DHT22;9495;51.210;2.934;2023-06-14T14:48:38;25.80;99.90
18733;DHT22;9495;51.210;2.934;2023-06-14T14:51:06;25.80;99.90
18733;DHT22;9495;51.210;2.934;2023-06-14T14:53:34;25.90;99.90
18733;DHT22;9495;51.210;2.934;2023-06-14T14:56:05;26.00;99.90
18733;DHT22;9495;51.210;2.934;2023-06-14T14:58:33;26.20;99.90
18733;DHT22;9495;51.210;2.934;2023-06-14T15:01:02;26.20;99.90
18733;DHT22;9495;51.210;2.934;2023-06-14T15:03:30;26.20;99.90
18733;DHT22;9495;51.210;2.934;2023-06-14T15:06:15;26.00;99.90
18733;DHT22;9495;51.210;2.934;2023-06-14T15:08:45;26.10;99.90
18733;DHT22;9495;51.210;2.934;2023-06-14T15:11:14;26.20;99.90
18733;DHT22;9495;51.210;2.934;2023-06-14T15:13:43;26.00;99.90
18733;DHT22;9495;51.210;2.934;2023-06-14T15:16:11;25.80;99.90
18733;DHT22;9495;51.210;2.934;2023-06-14T15:18:40;26.00;99.90
18733;DHT22;9495;51.210;2.934;2023-06-14T15:21:08;26.10;99.90
18733;DHT22;9495;51.210;2.934;2023-06-14T15:23:37;26.10;99.90
18733;DHT22;9495;51.210;2.934;2023-06-14T15:26:05;26.20;99.90
18733;DHT22;9495;51.210;2.934;2023-06-14T15:28:35;26.20;99.90
18733;DHT22;9495;51.210;2.934;2023-06-14T15:31:04;26.00;99.90
18733;DHT22;9495;51.210;2.934;2023-06-14T15:33:33;26.10;99.90
18733;DHT22;9495;51.210;2.934;2023-06-14T15:36:01;26.20;99.90
18733;DHT22;9495;51.210;2.934;2023-06-14T15:38:31;25.80;99.90
18733;DHT22;9495;51.210;2.934;2023-06-14T15:41:01;25.80;99.90
18733;DHT22;9495;51.210;2.934;2023-06-14T15:43:29;26.00;99.90
18733;DHT22;9495;51.210;2.934;2023-06-14T15:45:59;25.80;99.90
18733;DHT22;9495;51.210;2.934;2023-06-14T15:48:28;25.80;99.90
18733;DHT22;9495;51.210;2.934;2023-06-14T15:50:56;25.70;99.90
18733;DHT22;9495;51.210;2.934;2023-06-14T15:53:25;25.60;99.90
18733;DHT22;9495;51.210;2.934;2023-06-14T15:55:54;25.50;99.90
18733;DHT22;9495;51.210;2.934;2023-06-14T15:58:22;25.80;99.90
18733;DHT22;9495;51.210;2.934;2023-06-14T16:00:50;25.90;99.90
18733;DHT22;9495;51.210;2.934;2023-06-14T16:03:20;25.70;99.90